createdAt,value
2019-01-31T00:01:06.928Z,41.03
2019-01-31T00:04:21.818Z,35.83
2019-01-31T00:07:46.129Z,35.23
2019-01-31T00:10:40.959Z,34.10
2019-01-31T00:14:11.830Z,36.00
2019-01-31T00:17:16.621Z,31.03
2019-01-31T00:20:12.292Z,32.53
2019-01-31T00:23:25.363Z,32.77
2019-01-31T00:26:43.543Z,31.17
2019-01-31T00:30:05.469Z,33.47
2019-01-31T00:33:12.167Z,32.60
2019-01-31T00:36:15.159Z,32.10
2019-01-31T00:39:32.999Z,32.07
2019-01-31T00:42:07.404Z,31.20
2019-01-31T00:45:09.006Z,30.00
2019-01-31T00:48:17.976Z,29.83
2019-01-31T00:50:54.056Z,27.60
2019-01-31T00:53:43.678Z,28.23
2019-01-31T00:56:46.031Z,29.70
2019-01-31T00:59:55.248Z,25.87
2019-01-31T01:03:00.849Z,28.67
2019-01-31T01:05:58.227Z,27.07
2019-01-31T01:09:25.122Z,29.47
2019-01-31T01:12:05.462Z,30.87
2019-01-31T01:15:02.974Z,26.73
2019-01-31T01:17:51.786Z,31.13
2019-01-31T01:20:51.923Z,30.10
2019-01-31T01:24:10.117Z,30.10
2019-01-31T01:26:48.098Z,27.90
2019-01-31T01:29:56.159Z,27.50
2019-01-31T01:33:24.635Z,28.17
2019-01-31T01:36:15.953Z,27.23
2019-01-31T01:39:19.807Z,26.37
2019-01-31T01:42:24.178Z,27.77
2019-01-31T01:45:06.023Z,26.83
2019-01-31T01:47:33.434Z,28.60
2019-01-31T01:50:11.860Z,29.03
2019-01-31T01:53:39.802Z,26.83
2019-01-31T01:56:49.824Z,26.70
2019-01-31T01:59:16.920Z,26.93
2019-01-31T02:02:16.997Z,27.07
2019-01-31T02:05:05.599Z,28.33
2019-01-31T02:08:00.393Z,27.77
2019-01-31T02:11:01.868Z,27.03
2019-01-31T02:14:16.892Z,26.37
2019-01-31T02:17:32.139Z,26.30
2019-01-31T02:20:28.932Z,25.10
2019-01-31T02:23:29.122Z,26.73
2019-01-31T02:26:17.871Z,27.53
2019-01-31T02:29:28.217Z,27.33
2019-01-31T02:32:12.319Z,26.10
2019-01-31T02:35:14.069Z,26.03
2019-01-31T02:37:47.942Z,26.80
2019-01-31T02:40:47.073Z,25.33
2019-01-31T02:43:25.493Z,25.53
2019-01-31T02:46:45.709Z,25.23
2019-01-31T02:49:21.580Z,26.03
2019-01-31T02:52:26.799Z,23.57
2019-01-31T02:55:00.818Z,25.27
2019-01-31T02:58:24.894Z,24.97
2019-01-31T03:01:43.253Z,24.60
2019-01-31T03:04:39.446Z,24.40
2019-01-31T03:07:21.108Z,25.17
2019-01-31T03:10:25.375Z,24.10
2019-01-31T03:13:35.985Z,23.10
2019-01-31T03:16:47.272Z,23.13
2019-01-31T03:19:27.611Z,24.43
2019-01-31T03:22:41.584Z,23.50
2019-01-31T03:25:49.294Z,24.00
2019-01-31T03:28:54.267Z,23.70
2019-01-31T03:32:06.695Z,23.67
2019-01-31T03:35:19.503Z,23.63
2019-01-31T03:38:31.420Z,22.30
2019-01-31T03:42:05.788Z,22.43
2019-01-31T03:44:42.070Z,24.17
2019-01-31T03:47:52.643Z,23.77
2019-01-31T03:50:14.107Z,25.60
2019-01-31T03:53:18.372Z,25.03
2019-01-31T03:55:57.222Z,23.23
2019-01-31T03:58:51.597Z,25.93
2019-01-31T04:02:34.949Z,23.20
2019-01-31T04:05:43.377Z,24.53
2019-01-31T04:07:50.385Z,23.07
2019-01-31T04:09:57.724Z,23.43
2019-01-31T04:12:05.231Z,25.10
2019-01-31T04:14:12.596Z,23.87
2019-01-31T04:16:20.069Z,23.40
2019-01-31T04:18:26.995Z,23.17
2019-01-31T04:20:34.177Z,24.80
2019-01-31T04:22:41.259Z,24.10
2019-01-31T04:24:48.436Z,23.33
2019-01-31T04:26:55.392Z,24.63
2019-01-31T04:29:02.418Z,24.07
2019-01-31T04:31:09.511Z,22.20
2019-01-31T04:33:17.525Z,24.53
2019-01-31T04:35:24.566Z,23.30
2019-01-31T04:37:31.618Z,24.17
2019-01-31T04:39:39.207Z,23.80
2019-01-31T04:41:46.291Z,23.60
2019-01-31T04:43:53.311Z,23.10
2019-01-31T04:46:00.328Z,23.90
2019-01-31T04:48:07.446Z,23.20
2019-01-31T04:50:15.699Z,25.60
2019-01-31T04:52:22.708Z,24.03
2019-01-31T04:54:29.632Z,26.20
2019-01-31T04:56:36.650Z,25.17
2019-01-31T04:58:43.670Z,25.10
2019-01-31T05:00:51.968Z,24.67
2019-01-31T05:02:58.976Z,23.90
2019-01-31T05:05:07.102Z,23.33
2019-01-31T05:07:14.200Z,24.20
2019-01-31T05:09:21.219Z,25.33
2019-01-31T05:11:28.259Z,23.83
2019-01-31T05:13:35.371Z,23.37
2019-01-31T05:15:42.427Z,23.03
2019-01-31T05:17:49.444Z,21.97
2019-01-31T05:22:03.580Z,21.73
2019-01-31T05:24:10.796Z,24.63
2019-01-31T05:26:18.153Z,25.40
2019-01-31T05:28:25.506Z,28.37
2019-01-31T05:30:33.126Z,26.90
2019-01-31T05:32:40.526Z,22.90
2019-01-31T05:34:47.496Z,22.87
2019-01-31T05:36:54.505Z,23.30
2019-01-31T05:39:01.673Z,22.13
2019-01-31T05:41:08.730Z,23.23
2019-01-31T05:43:16.033Z,23.27
2019-01-31T05:45:23.240Z,22.63
2019-01-31T05:47:30.314Z,22.97
2019-01-31T05:49:37.357Z,22.07
2019-01-31T05:51:44.779Z,22.53
2019-01-31T05:53:51.779Z,22.10
2019-01-31T05:55:58.916Z,21.93
2019-01-31T05:58:05.990Z,21.93
2019-01-31T06:00:21.761Z,24.43
2019-01-31T06:02:28.994Z,25.10
2019-01-31T06:04:36.045Z,27.33
2019-01-31T06:06:43.176Z,24.57
2019-01-31T06:08:51.151Z,27.23
2019-01-31T06:11:07.207Z,30.37
2019-01-31T06:13:07.081Z,35.17
2019-01-31T06:15:16.037Z,29.50
2019-01-31T06:17:23.095Z,24.47
2019-01-31T06:19:30.158Z,28.07
2019-01-31T06:21:37.130Z,30.23
2019-01-31T06:23:44.186Z,35.10
2019-01-31T06:25:51.240Z,31.03
2019-01-31T06:27:58.357Z,29.10
2019-01-31T06:30:06.266Z,28.83
2019-01-31T06:32:13.333Z,27.27
2019-01-31T06:34:20.370Z,26.03
2019-01-31T06:36:27.531Z,32.23
2019-01-31T06:38:34.530Z,43.53
2019-01-31T06:40:41.817Z,41.67
2019-01-31T06:42:49.249Z,63.77
2019-01-31T06:44:56.345Z,35.60
2019-01-31T06:47:03.503Z,32.27
2019-01-31T06:49:10.727Z,32.30
2019-01-31T06:51:18.838Z,33.07
2019-01-31T06:53:25.937Z,28.70
2019-01-31T06:55:33.269Z,26.70
2019-01-31T06:57:40.328Z,29.60
2019-01-31T06:59:47.572Z,31.00
2019-01-31T07:01:55.067Z,27.47
2019-01-31T07:04:02.133Z,25.70
2019-01-31T07:06:09.263Z,25.20
2019-01-31T07:08:16.412Z,32.70
2019-01-31T07:10:26.487Z,32.37
2019-01-31T07:12:33.588Z,29.17
2019-01-31T07:14:40.781Z,26.17
2019-01-31T07:16:47.826Z,28.93
2019-01-31T07:18:54.997Z,27.03
2019-01-31T07:21:02.071Z,23.63
2019-01-31T07:23:09.074Z,24.63
2019-01-31T07:25:19.748Z,39.60
2019-01-31T07:27:26.853Z,28.23
2019-01-31T07:29:33.878Z,24.87
2019-01-31T07:31:40.814Z,26.93
2019-01-31T07:33:48.040Z,27.30
2019-01-31T07:35:55.149Z,27.10
2019-01-31T07:38:02.216Z,28.07
2019-01-31T07:40:10.331Z,24.33
2019-01-31T07:42:17.535Z,22.87
2019-01-31T07:44:24.664Z,23.73
2019-01-31T07:46:31.744Z,27.67
2019-01-31T07:48:38.977Z,22.80
2019-01-31T07:50:46.205Z,24.07
2019-01-31T07:52:53.353Z,23.80
2019-01-31T07:55:01.997Z,27.93
2019-01-31T07:57:09.566Z,24.63
2019-01-31T07:59:16.786Z,24.20
2019-01-31T08:01:23.867Z,24.23
2019-01-31T08:03:30.996Z,22.83
2019-01-31T08:05:38.162Z,23.97
2019-01-31T08:07:45.225Z,27.37
2019-01-31T08:09:52.389Z,25.40
2019-01-31T08:11:59.519Z,25.87
2019-01-31T08:14:06.731Z,27.20
2019-01-31T08:16:13.781Z,26.67
2019-01-31T08:18:20.931Z,34.63
2019-01-31T08:20:27.984Z,30.77
2019-01-31T08:22:35.054Z,28.83
2019-01-31T08:24:42.233Z,26.50
2019-01-31T08:26:49.263Z,20.70
2019-01-31T08:28:56.360Z,22.87
2019-01-31T08:31:03.555Z,23.60
2019-01-31T08:33:10.587Z,22.60
2019-01-31T08:35:17.590Z,22.77
2019-01-31T08:37:24.763Z,24.90
2019-01-31T08:39:31.843Z,22.00
2019-01-31T08:41:38.926Z,23.40
2019-01-31T08:43:46.733Z,20.40
2019-01-31T08:45:53.869Z,22.33
2019-01-31T08:48:00.972Z,25.67
2019-01-31T08:50:10.786Z,23.73
2019-01-31T08:52:17.840Z,23.57
2019-01-31T08:54:24.932Z,23.87
2019-01-31T08:56:31.968Z,22.13
2019-01-31T08:58:39.012Z,20.77
2019-01-31T09:00:46.043Z,19.97
2019-01-31T09:02:53.083Z,19.80
2019-01-31T09:05:00.317Z,18.93
2019-01-31T09:07:07.392Z,20.07
2019-01-31T09:09:15.910Z,17.53
2019-01-31T09:11:23.881Z,19.83
2019-01-31T09:13:31.773Z,22.50
2019-01-31T09:15:38.866Z,25.53
2019-01-31T09:17:46.067Z,28.30
2019-01-31T09:19:53.091Z,27.87
2019-01-31T09:22:24.449Z,24.63
2019-01-31T09:25:22.068Z,25.30
2019-01-31T09:28:16.431Z,19.77
2019-01-31T09:31:29.753Z,26.27
2019-01-31T09:34:42.222Z,35.13
2019-01-31T09:37:53.315Z,35.80
2019-01-31T09:41:15.543Z,30.00
2019-01-31T09:44:08.090Z,39.70
2019-01-31T09:47:08.544Z,18.17
2019-01-31T09:50:11.690Z,16.93
2019-01-31T09:53:30.875Z,18.67
2019-01-31T09:56:29.281Z,16.57
2019-01-31T09:59:28.573Z,16.73
2019-01-31T10:02:44.472Z,18.00
2019-01-31T10:05:27.706Z,17.23
2019-01-31T10:08:12.223Z,19.40
2019-01-31T10:11:17.466Z,15.97
2019-01-31T10:14:16.774Z,20.57
2019-01-31T10:17:31.434Z,19.17
2019-01-31T10:20:34.026Z,19.10
2019-01-31T10:23:12.762Z,25.90
2019-01-31T10:25:53.847Z,19.90
2019-01-31T10:28:52.855Z,17.73
2019-01-31T10:32:14.705Z,16.47
2019-01-31T10:35:30.619Z,11.07
2019-01-31T10:38:26.531Z,12.27
2019-01-31T10:41:41.700Z,15.87
2019-01-31T10:44:48.887Z,73.03
2019-01-31T10:48:12.261Z,55.33
2019-01-31T10:50:50.357Z,75.40
2019-01-31T10:53:50.329Z,38.37
2019-01-31T10:56:45.847Z,22.70
2019-01-31T10:59:16.210Z,17.80
2019-01-31T11:02:18.267Z,23.37
2019-01-31T11:05:26.196Z,23.00
2019-01-31T11:08:46.326Z,19.40
2019-01-31T11:11:19.779Z,20.50
2019-01-31T11:14:13.347Z,20.10
2019-01-31T11:17:34.549Z,19.07
2019-01-31T11:20:22.498Z,21.17
2019-01-31T11:23:14.706Z,24.63
2019-01-31T11:26:14.182Z,33.93
2019-01-31T11:29:33.977Z,27.90
2019-01-31T11:32:38.432Z,32.77
2019-01-31T11:35:45.082Z,27.33
2019-01-31T11:38:32.946Z,20.73
2019-01-31T11:41:21.625Z,26.97
2019-01-31T11:44:11.423Z,30.07
2019-01-31T11:47:12.784Z,29.03
2019-01-31T11:50:04.170Z,31.77
2019-01-31T11:53:03.598Z,33.00
2019-01-31T11:55:34.602Z,22.67
2019-01-31T11:58:58.442Z,42.53
2019-01-31T12:01:07.494Z,36.70
2019-01-31T12:03:14.585Z,35.63
2019-01-31T12:05:22.163Z,23.87
2019-01-31T12:07:29.199Z,23.73
2019-01-31T12:09:36.359Z,26.47
2019-01-31T12:11:43.514Z,27.93
2019-01-31T12:13:50.669Z,30.33
2019-01-31T12:15:57.688Z,22.57
2019-01-31T12:18:04.891Z,22.27
2019-01-31T12:20:12.515Z,23.37
2019-01-31T12:22:19.594Z,26.73
2019-01-31T12:24:26.701Z,25.57
2019-01-31T12:26:33.799Z,27.30
2019-01-31T12:28:41.458Z,32.40
2019-01-31T12:30:48.555Z,38.27
2019-01-31T12:32:55.564Z,47.77
2019-01-31T12:35:02.753Z,32.83
2019-01-31T12:37:09.870Z,29.90
2019-01-31T12:39:16.970Z,31.27
2019-01-31T12:41:24.085Z,26.97
2019-01-31T12:43:35.262Z,28.33
2019-01-31T12:45:39.985Z,30.87
2019-01-31T12:47:47.141Z,26.73
2019-01-31T12:49:54.298Z,41.37
2019-01-31T12:52:04.082Z,26.30
2019-01-31T12:54:10.267Z,27.10
2019-01-31T12:56:17.433Z,30.03
2019-01-31T12:58:33.358Z,24.50
2019-01-31T13:00:33.273Z,29.67
2019-01-31T13:02:40.497Z,30.47
2019-01-31T13:04:47.648Z,27.77
2019-01-31T13:06:54.879Z,27.10
2019-01-31T13:09:02.039Z,27.63
2019-01-31T13:11:09.172Z,29.30
2019-01-31T13:13:16.384Z,28.23
2019-01-31T13:15:23.453Z,27.93
2019-01-31T13:17:30.543Z,51.80
2019-01-31T13:19:37.830Z,27.90
2019-01-31T13:21:44.983Z,34.10
2019-01-31T13:23:52.215Z,29.63
2019-01-31T13:25:59.334Z,31.00
2019-01-31T13:28:06.437Z,29.43
2019-01-31T13:30:17.218Z,31.63
2019-01-31T13:32:24.963Z,27.67
2019-01-31T13:34:32.185Z,29.97
2019-01-31T13:36:39.281Z,34.57
2019-01-31T13:38:46.368Z,31.40
2019-01-31T13:40:53.489Z,28.70
2019-01-31T13:43:00.728Z,27.27
2019-01-31T13:45:10.000Z,34.87
2019-01-31T13:47:17.593Z,35.97
2019-01-31T13:49:24.790Z,37.17
2019-01-31T13:51:31.956Z,38.63
2019-01-31T13:53:39.327Z,31.37
2019-01-31T13:55:46.620Z,31.70
2019-01-31T13:57:54.149Z,35.67
2019-01-31T14:00:01.397Z,31.57
2019-01-31T14:02:09.421Z,36.47
2019-01-31T14:04:16.885Z,34.27
2019-01-31T14:06:23.918Z,43.77
2019-01-31T14:08:31.144Z,63.00
2019-01-31T14:10:38.382Z,37.53
2019-01-31T14:12:45.680Z,28.47
2019-01-31T14:14:52.887Z,42.33
2019-01-31T14:17:00.112Z,38.03
2019-01-31T14:19:07.455Z,36.97
2019-01-31T14:21:14.906Z,34.60
2019-01-31T14:23:22.233Z,29.00
2019-01-31T14:25:29.633Z,25.83
2019-01-31T14:27:37.006Z,41.83
2019-01-31T14:29:44.261Z,43.70
2019-01-31T14:31:51.513Z,45.40
2019-01-31T14:33:58.631Z,28.67
2019-01-31T14:36:05.879Z,27.80
2019-01-31T14:38:13.307Z,35.27
2019-01-31T14:40:20.455Z,28.13
2019-01-31T14:42:27.603Z,32.00
2019-01-31T14:44:34.839Z,33.77
2019-01-31T14:46:41.889Z,33.10
2019-01-31T14:48:48.957Z,52.63
2019-01-31T14:50:56.080Z,47.87
2019-01-31T14:53:03.756Z,57.13
2019-01-31T14:55:11.327Z,52.03
2019-01-31T14:57:18.492Z,54.63
2019-01-31T14:59:25.679Z,52.23
2019-01-31T15:01:32.921Z,47.27
2019-01-31T15:03:40.482Z,45.47
2019-01-31T15:05:47.762Z,43.10
2019-01-31T15:07:54.879Z,32.83
2019-01-31T15:10:02.172Z,32.13
2019-01-31T15:12:09.333Z,27.53
2019-01-31T15:14:16.417Z,29.37
2019-01-31T15:16:23.532Z,28.33
2019-01-31T15:18:30.824Z,28.87
2019-01-31T15:20:44.303Z,32.60
2019-01-31T15:22:51.440Z,34.70
2019-01-31T15:24:58.704Z,35.17
2019-01-31T15:27:05.817Z,33.27
2019-01-31T15:29:13.083Z,31.50
2019-01-31T15:31:20.411Z,26.80
2019-01-31T15:33:27.861Z,28.83
2019-01-31T15:35:35.148Z,28.30
2019-01-31T15:37:42.300Z,29.60
2019-01-31T15:39:49.518Z,29.60
2019-01-31T15:41:56.680Z,27.70
2019-01-31T15:44:03.881Z,26.97
2019-01-31T15:46:12.840Z,29.97
2019-01-31T15:48:19.933Z,35.40
2019-01-31T15:50:27.032Z,31.30
2019-01-31T15:52:34.126Z,32.80
2019-01-31T15:54:41.292Z,32.97
2019-01-31T15:56:48.540Z,33.23
2019-01-31T15:58:55.691Z,33.87
2019-01-31T16:01:02.969Z,34.60
2019-01-31T16:03:13.046Z,34.37
2019-01-31T16:05:20.128Z,45.40
2019-01-31T16:07:27.231Z,42.50
2019-01-31T16:09:34.339Z,68.63
2019-01-31T16:11:41.251Z,70.67
2019-01-31T16:13:48.820Z,61.50
2019-01-31T16:15:56.058Z,51.27
2019-01-31T16:18:03.168Z,52.30
2019-01-31T16:20:12.235Z,42.93
2019-01-31T16:22:19.345Z,42.33
2019-01-31T16:24:26.512Z,44.13
2019-01-31T16:26:33.596Z,38.30
2019-01-31T16:28:40.755Z,34.07
2019-01-31T16:30:50.732Z,35.10
2019-01-31T16:32:58.183Z,36.80
2019-01-31T16:35:06.039Z,39.80
2019-01-31T16:37:13.265Z,42.40
2019-01-31T16:39:20.328Z,47.30
2019-01-31T16:41:27.815Z,49.50
2019-01-31T16:43:35.322Z,49.23
2019-01-31T16:45:45.895Z,56.57
2019-01-31T16:47:51.599Z,57.13
2019-01-31T16:49:58.695Z,55.33
2019-01-31T16:52:06.487Z,50.67
2019-01-31T16:54:14.314Z,53.83
2019-01-31T16:56:21.812Z,51.70
2019-01-31T16:58:29.137Z,47.83
2019-01-31T17:00:36.347Z,47.53
2019-01-31T17:02:44.833Z,55.70
2019-01-31T17:04:52.176Z,54.33
2019-01-31T17:06:59.801Z,52.80
2019-01-31T17:09:10.201Z,53.83
2019-01-31T17:11:17.698Z,47.60
2019-01-31T17:13:24.959Z,49.33
2019-01-31T17:15:32.280Z,50.30
2019-01-31T17:17:39.780Z,47.50
2019-01-31T17:19:46.903Z,47.97
2019-01-31T17:21:54.175Z,45.40
2019-01-31T17:24:01.763Z,45.67
2019-01-31T17:26:09.289Z,38.03
2019-01-31T17:28:16.780Z,36.83
2019-01-31T17:30:25.620Z,41.07
2019-01-31T17:32:32.779Z,37.67
2019-01-31T17:34:40.781Z,39.93
2019-01-31T17:36:48.617Z,40.50
2019-01-31T17:38:56.169Z,48.97
2019-01-31T17:41:04.253Z,44.77
2019-01-31T17:43:13.422Z,44.03
2019-01-31T17:45:30.021Z,43.63
2019-01-31T17:47:29.833Z,45.63
2019-01-31T17:49:37.109Z,43.63
2019-01-31T17:51:44.305Z,47.00
2019-01-31T17:53:51.670Z,49.73
2019-01-31T17:55:58.932Z,58.97
2019-01-31T17:58:06.659Z,58.63
2019-01-31T18:00:24.427Z,56.03
2019-01-31T18:02:31.943Z,63.97
2019-01-31T18:04:39.315Z,50.30
2019-01-31T18:06:47.223Z,47.17
2019-01-31T18:08:54.634Z,50.27
2019-01-31T18:11:02.067Z,61.33
2019-01-31T18:13:10.422Z,60.13
2019-01-31T18:15:18.662Z,59.03
2019-01-31T18:17:29.821Z,49.93
2019-01-31T18:19:35.805Z,49.87
2019-01-31T18:21:43.414Z,48.20
2019-01-31T18:23:51.096Z,46.33
2019-01-31T18:25:59.362Z,42.83
2019-01-31T18:28:07.365Z,41.53
2019-01-31T18:30:22.049Z,41.63
2019-01-31T18:32:29.928Z,40.10
2019-01-31T18:34:38.849Z,40.93
2019-01-31T18:36:46.830Z,52.27
2019-01-31T18:38:57.534Z,51.87
2019-01-31T18:41:04.226Z,52.70
2019-01-31T18:43:11.560Z,50.53
2019-01-31T18:45:22.478Z,55.00
2019-01-31T18:47:30.712Z,52.17
2019-01-31T18:49:38.672Z,75.33
2019-01-31T18:51:46.359Z,94.10
2019-01-31T18:53:54.366Z,85.13
2019-01-31T18:56:02.433Z,94.03
2019-01-31T18:58:11.581Z,76.70
2019-01-31T19:00:24.408Z,80.53
2019-01-31T19:02:31.647Z,70.77
2019-01-31T19:04:38.729Z,69.03
2019-01-31T19:06:45.951Z,63.47
2019-01-31T19:08:53.053Z,65.90
2019-01-31T19:11:00.405Z,50.17
2019-01-31T19:13:08.373Z,45.47
2019-01-31T19:15:16.844Z,44.73
2019-01-31T19:17:24.506Z,45.10
2019-01-31T19:19:31.819Z,42.87
2019-01-31T19:21:39.005Z,44.97
2019-01-31T19:23:46.261Z,57.47
2019-01-31T19:25:53.472Z,50.83
2019-01-31T19:28:00.558Z,43.67
2019-01-31T19:30:19.098Z,45.43
2019-01-31T19:32:26.328Z,41.60
2019-01-31T19:34:33.601Z,40.33
2019-01-31T19:36:41.069Z,39.87
2019-01-31T19:38:48.354Z,37.93
2019-01-31T19:40:55.758Z,39.23
2019-01-31T19:43:03.043Z,40.47
2019-01-31T19:45:15.872Z,72.57
2019-01-31T19:47:23.349Z,67.20
2019-01-31T19:49:31.656Z,60.63
2019-01-31T19:51:38.808Z,60.67
2019-01-31T19:53:48.391Z,53.13
2019-01-31T19:55:55.101Z,42.83
2019-01-31T19:58:02.291Z,41.43
2019-01-31T20:00:11.580Z,46.33
2019-01-31T20:02:19.118Z,43.27
2019-01-31T20:04:26.359Z,46.23
2019-01-31T20:06:33.997Z,49.77
2019-01-31T20:08:41.699Z,49.40
2019-01-31T20:10:49.322Z,51.40
2019-01-31T20:12:58.431Z,49.53
2019-01-31T20:15:07.315Z,63.57
2019-01-31T20:17:14.928Z,51.97
2019-01-31T20:19:22.903Z,50.87
2019-01-31T20:21:30.762Z,46.07
2019-01-31T20:23:38.414Z,51.53
2019-01-31T20:25:52.741Z,40.20
2019-01-31T20:28:00.442Z,36.63
2019-01-31T20:30:09.456Z,41.43
2019-01-31T20:32:16.605Z,39.80
2019-01-31T20:34:24.279Z,31.40
2019-01-31T20:36:32.153Z,27.10
2019-01-31T20:38:40.321Z,25.90
2019-01-31T20:40:47.692Z,25.27
2019-01-31T20:42:54.800Z,26.53
2019-01-31T20:45:01.975Z,31.93
2019-01-31T20:47:09.081Z,25.97
2019-01-31T20:49:16.256Z,25.60
2019-01-31T20:51:23.459Z,26.43
2019-01-31T20:53:30.737Z,28.77
2019-01-31T20:55:37.873Z,26.63
2019-01-31T20:57:45.110Z,27.73
2019-01-31T20:59:58.086Z,26.77
2019-01-31T21:02:05.400Z,24.23
2019-01-31T21:04:12.607Z,24.27
2019-01-31T21:06:19.851Z,25.60
2019-01-31T21:08:27.223Z,27.23
2019-01-31T21:10:34.530Z,28.20
2019-01-31T21:12:41.759Z,27.40
2019-01-31T21:14:49.099Z,27.97
2019-01-31T21:16:56.324Z,29.73
2019-01-31T21:19:03.400Z,27.57
2019-01-31T21:21:10.495Z,26.33
2019-01-31T21:23:17.809Z,24.63
2019-01-31T21:25:24.995Z,24.93
2019-01-31T21:27:32.241Z,29.30
2019-01-31T21:29:39.537Z,32.57
2019-01-31T21:31:46.644Z,30.53
2019-01-31T21:33:53.966Z,29.43
2019-01-31T21:36:01.092Z,30.97
2019-01-31T21:38:08.784Z,31.37
2019-01-31T21:40:15.938Z,34.03
2019-01-31T21:42:23.065Z,34.67
2019-01-31T21:44:30.332Z,47.70
2019-01-31T21:46:37.530Z,30.93
2019-01-31T21:48:44.810Z,40.93
2019-01-31T21:50:52.011Z,33.30
2019-01-31T21:52:59.147Z,27.33
2019-01-31T21:55:07.107Z,23.00
2019-01-31T21:57:14.205Z,22.47
2019-01-31T21:59:21.459Z,22.17
2019-01-31T22:01:28.903Z,22.70
2019-01-31T22:03:36.238Z,22.40
2019-01-31T22:05:43.658Z,23.37
2019-01-31T22:07:51.246Z,25.07
2019-01-31T22:09:58.995Z,31.40
2019-01-31T22:12:06.323Z,29.20
2019-01-31T22:14:14.042Z,34.27
2019-01-31T22:16:21.961Z,33.87
2019-01-31T22:18:29.363Z,32.73
2019-01-31T22:20:37.576Z,29.80
2019-01-31T22:22:45.641Z,29.93
2019-01-31T22:24:52.721Z,26.27
2019-01-31T22:26:59.922Z,27.40
2019-01-31T22:29:08.361Z,23.77
2019-01-31T22:31:15.785Z,24.30
2019-01-31T22:33:22.890Z,28.03
2019-01-31T22:35:30.102Z,25.47
2019-01-31T22:37:37.407Z,25.73
2019-01-31T22:39:44.515Z,26.87
2019-01-31T22:41:51.666Z,30.50
2019-01-31T22:43:58.955Z,27.97
2019-01-31T22:46:06.121Z,26.90
2019-01-31T22:48:13.458Z,25.30
2019-01-31T22:50:22.225Z,26.97
2019-01-31T22:52:29.300Z,26.47
2019-01-31T22:54:36.534Z,26.87
2019-01-31T22:56:43.603Z,26.20
2019-01-31T22:58:50.734Z,25.53
2019-01-31T23:01:39.351Z,24.27
2019-01-31T23:03:46.538Z,24.93
2019-01-31T23:05:53.682Z,22.33
2019-01-31T23:08:00.894Z,22.37
2019-01-31T23:10:08.571Z,21.90
2019-01-31T23:12:15.695Z,23.40
2019-01-31T23:14:22.930Z,23.43
2019-01-31T23:16:30.408Z,23.20
2019-01-31T23:18:37.600Z,22.70
2019-01-31T23:20:44.828Z,22.93
2019-01-31T23:22:52.031Z,23.10
2019-01-31T23:24:59.084Z,22.17
2019-01-31T23:27:06.226Z,22.80
2019-01-31T23:29:13.298Z,21.40
2019-01-31T23:31:20.503Z,22.33
2019-01-31T23:33:27.578Z,21.80
2019-01-31T23:35:34.799Z,22.50
2019-01-31T23:37:41.951Z,20.67
2019-01-31T23:39:49.136Z,22.43
2019-01-31T23:41:56.264Z,23.97
2019-01-31T23:44:03.393Z,24.57
2019-01-31T23:46:10.466Z,24.10
2019-01-31T23:48:17.696Z,22.23
2019-01-31T23:50:24.745Z,20.50
2019-01-31T23:52:31.821Z,22.13
2019-01-31T23:54:38.967Z,22.30
2019-01-31T23:56:46.072Z,22.70
2019-01-31T23:58:53.158Z,22.20
